sensor_id;sensor_type;location;lat;lon;timestamp;P1;durP1;ratioP1;P2;durP2;ratioP2
30533;SDS011;17318;52.390;9.754;2022-12-11T00:00:19;39.03;;;17.83;;
30533;SDS011;17318;52.390;9.754;2022-12-11T00:02:45;39.95;;;17.30;;
30533;SDS011;17318;52.390;9.754;2022-12-11T00:05:11;37.00;;;17.05;;
30533;SDS011;17318;52.390;9.754;2022-12-11T00:07:36;37.40;;;17.25;;
30533;SDS011;17318;52.390;9.754;2022-12-11T00:10:02;42.03;;;18.00;;
30533;SDS011;17318;52.390;9.754;2022-12-11T00:12:29;38.70;;;17.25;;
30533;SDS011;17318;52.390;9.754;2022-12-11T00:14:55;42.60;;;17.45;;
30533;SDS011;17318;52.390;9.754;2022-12-11T00:17:20;41.28;;;17.25;;
30533;SDS011;17318;52.390;9.754;2022-12-11T00:19:46;41.10;;;18.33;;
30533;SDS011;17318;52.390;9.754;2022-12-11T00:22:12;42.20;;;18.02;;
30533;SDS011;17318;52.390;9.754;2022-12-11T00:24:37;36.65;;;16.50;;
30533;SDS011;17318;52.390;9.754;2022-12-11T00:27:03;37.03;;;17.08;;
30533;SDS011;17318;52.390;9.754;2022-12-11T00:29:28;43.95;;;17.80;;
30533;SDS011;17318;52.390;9.754;2022-12-11T00:31:54;40.92;;;17.60;;
30533;SDS011;17318;52.390;9.754;2022-12-11T00:34:20;44.67;;;18.52;;
30533;SDS011;17318;52.390;9.754;2022-12-11T00:36:46;44.78;;;18.27;;
30533;SDS011;17318;52.390;9.754;2022-12-11T00:39:12;38.03;;;17.20;;
30533;SDS011;17318;52.390;9.754;2022-12-11T00:41:37;42.30;;;19.67;;
30533;SDS011;17318;52.390;9.754;2022-12-11T00:44:03;42.20;;;19.17;;
30533;SDS011;17318;52.390;9.754;2022-12-11T00:46:29;40.20;;;17.63;;
30533;SDS011;17318;52.390;9.754;2022-12-11T00:48:54;43.58;;;18.52;;
30533;SDS011;17318;52.390;9.754;2022-12-11T00:51:20;35.92;;;15.88;;
30533;SDS011;17318;52.390;9.754;2022-12-11T00:53:46;34.92;;;15.88;;
30533;SDS011;17318;52.390;9.754;2022-12-11T00:56:15;33.15;;;15.48;;
30533;SDS011;17318;52.390;9.754;2022-12-11T00:58:43;35.85;;;15.13;;
30533;SDS011;17318;52.390;9.754;2022-12-11T01:01:15;37.22;;;16.30;;
30533;SDS011;17318;52.390;9.754;2022-12-11T01:03:43;34.28;;;16.20;;
30533;SDS011;17318;52.390;9.754;2022-12-11T01:06:13;39.70;;;17.00;;
30533;SDS011;17318;52.390;9.754;2022-12-11T01:08:40;38.25;;;17.58;;
30533;SDS011;17318;52.390;9.754;2022-12-11T01:11:08;34.40;;;16.45;;
30533;SDS011;17318;52.390;9.754;2022-12-11T01:13:36;36.58;;;16.10;;
30533;SDS011;17318;52.390;9.754;2022-12-11T01:16:07;39.25;;;17.00;;
30533;SDS011;17318;52.390;9.754;2022-12-11T01:18:40;34.23;;;15.67;;
30533;SDS011;17318;52.390;9.754;2022-12-11T01:21:07;37.92;;;16.90;;
30533;SDS011;17318;52.390;9.754;2022-12-11T01:23:34;33.78;;;14.93;;
30533;SDS011;17318;52.390;9.754;2022-12-11T01:26:07;32.00;;;16.20;;
30533;SDS011;17318;52.390;9.754;2022-12-11T01:28:36;37.45;;;15.85;;
30533;SDS011;17318;52.390;9.754;2022-12-11T01:31:06;33.03;;;15.80;;
30533;SDS011;17318;52.390;9.754;2022-12-11T01:33:36;32.00;;;15.25;;
30533;SDS011;17318;52.390;9.754;2022-12-11T01:36:05;34.55;;;14.65;;
30533;SDS011;17318;52.390;9.754;2022-12-11T01:38:38;30.17;;;15.02;;
30533;SDS011;17318;52.390;9.754;2022-12-11T01:41:05;31.23;;;14.63;;
30533;SDS011;17318;52.390;9.754;2022-12-11T01:43:32;30.77;;;15.20;;
30533;SDS011;17318;52.390;9.754;2022-12-11T01:45:58;32.17;;;15.05;;
30533;SDS011;17318;52.390;9.754;2022-12-11T01:48:30;34.42;;;14.68;;
30533;SDS011;17318;52.390;9.754;2022-12-11T01:50:57;30.80;;;14.43;;
30533;SDS011;17318;52.390;9.754;2022-12-11T01:56:02;29.00;;;13.13;;
30533;SDS011;17318;52.390;9.754;2022-12-11T01:58:31;31.63;;;15.07;;
30533;SDS011;17318;52.390;9.754;2022-12-11T02:01:01;26.48;;;12.95;;
30533;SDS011;17318;52.390;9.754;2022-12-11T02:03:27;30.50;;;13.43;;
30533;SDS011;17318;52.390;9.754;2022-12-11T02:05:53;29.23;;;14.30;;
30533;SDS011;17318;52.390;9.754;2022-12-11T02:08:18;34.15;;;14.38;;
30533;SDS011;17318;52.390;9.754;2022-12-11T02:10:47;30.33;;;14.23;;
30533;SDS011;17318;52.390;9.754;2022-12-11T02:13:25;31.00;;;14.40;;
30533;SDS011;17318;52.390;9.754;2022-12-11T02:21:17;30.05;;;13.50;;
30533;SDS011;17318;52.390;9.754;2022-12-11T02:29:19;31.40;;;14.43;;
30533;SDS011;17318;52.390;9.754;2022-12-11T02:32:09;33.33;;;15.27;;
30533;SDS011;17318;52.390;9.754;2022-12-11T02:34:55;30.08;;;14.02;;
30533;SDS011;17318;52.390;9.754;2022-12-11T02:37:29;31.40;;;13.82;;
30533;SDS011;17318;52.390;9.754;2022-12-11T02:39:57;30.80;;;13.30;;
30533;SDS011;17318;52.390;9.754;2022-12-11T02:42:24;27.75;;;13.13;;
30533;SDS011;17318;52.390;9.754;2022-12-11T02:44:54;25.10;;;12.48;;
30533;SDS011;17318;52.390;9.754;2022-12-11T02:47:22;25.80;;;12.27;;
30533;SDS011;17318;52.390;9.754;2022-12-11T02:49:51;31.20;;;13.20;;
30533;SDS011;17318;52.390;9.754;2022-12-11T02:52:20;27.38;;;13.70;;
30533;SDS011;17318;52.390;9.754;2022-12-11T02:54:48;27.15;;;13.27;;
30533;SDS011;17318;52.390;9.754;2022-12-11T02:59:57;31.30;;;13.55;;
30533;SDS011;17318;52.390;9.754;2022-12-11T03:02:23;30.35;;;12.90;;
30533;SDS011;17318;52.390;9.754;2022-12-11T03:04:49;34.17;;;12.68;;
30533;SDS011;17318;52.390;9.754;2022-12-11T03:07:20;29.02;;;12.82;;
30533;SDS011;17318;52.390;9.754;2022-12-11T03:09:49;22.90;;;11.65;;
30533;SDS011;17318;52.390;9.754;2022-12-11T03:12:19;23.23;;;11.70;;
30533;SDS011;17318;52.390;9.754;2022-12-11T03:14:48;27.48;;;12.32;;
30533;SDS011;17318;52.390;9.754;2022-12-11T03:17:16;27.33;;;12.32;;
30533;SDS011;17318;52.390;9.754;2022-12-11T03:27:30;27.85;;;13.07;;
30533;SDS011;17318;52.390;9.754;2022-12-11T03:30:05;29.65;;;12.52;;
30533;SDS011;17318;52.390;9.754;2022-12-11T03:32:35;31.88;;;15.02;;
30533;SDS011;17318;52.390;9.754;2022-12-11T03:35:10;27.80;;;12.85;;
30533;SDS011;17318;52.390;9.754;2022-12-11T03:37:40;28.77;;;12.80;;
30533;SDS011;17318;52.390;9.754;2022-12-11T03:40:11;29.38;;;12.10;;
30533;SDS011;17318;52.390;9.754;2022-12-11T03:42:40;27.45;;;11.75;;
30533;SDS011;17318;52.390;9.754;2022-12-11T03:45:18;28.25;;;12.73;;
30533;SDS011;17318;52.390;9.754;2022-12-11T03:47:46;28.23;;;12.40;;
30533;SDS011;17318;52.390;9.754;2022-12-11T03:50:12;28.75;;;13.23;;
30533;SDS011;17318;52.390;9.754;2022-12-11T03:52:42;29.52;;;14.48;;
30533;SDS011;17318;52.390;9.754;2022-12-11T03:55:11;29.60;;;13.27;;
30533;SDS011;17318;52.390;9.754;2022-12-11T04:00:05;24.27;;;11.73;;
30533;SDS011;17318;52.390;9.754;2022-12-11T04:02:34;24.73;;;11.73;;
30533;SDS011;17318;52.390;9.754;2022-12-11T04:04:59;29.63;;;12.77;;
30533;SDS011;17318;52.390;9.754;2022-12-11T04:07:25;31.90;;;13.98;;
30533;SDS011;17318;52.390;9.754;2022-12-11T04:09:51;29.48;;;13.50;;
30533;SDS011;17318;52.390;9.754;2022-12-11T04:12:16;31.08;;;13.90;;
30533;SDS011;17318;52.390;9.754;2022-12-11T04:14:42;27.70;;;13.05;;
30533;SDS011;17318;52.390;9.754;2022-12-11T04:17:36;31.38;;;13.18;;
30533;SDS011;17318;52.390;9.754;2022-12-11T04:20:21;33.22;;;13.73;;
30533;SDS011;17318;52.390;9.754;2022-12-11T04:23:06;31.02;;;12.80;;
30533;SDS011;17318;52.390;9.754;2022-12-11T04:26:03;29.08;;;13.30;;
30533;SDS011;17318;52.390;9.754;2022-12-11T04:28:38;28.92;;;13.32;;
30533;SDS011;17318;52.390;9.754;2022-12-11T04:31:04;30.95;;;14.23;;
30533;SDS011;17318;52.390;9.754;2022-12-11T04:33:30;29.88;;;13.75;;
30533;SDS011;17318;52.390;9.754;2022-12-11T04:35:57;32.88;;;14.55;;
30533;SDS011;17318;52.390;9.754;2022-12-11T04:38:23;30.55;;;13.27;;
30533;SDS011;17318;52.390;9.754;2022-12-11T04:40:56;31.42;;;14.00;;
30533;SDS011;17318;52.390;9.754;2022-12-11T04:43:22;34.35;;;14.52;;
30533;SDS011;17318;52.390;9.754;2022-12-11T04:45:48;29.60;;;13.02;;
30533;SDS011;17318;52.390;9.754;2022-12-11T04:48:13;27.08;;;12.98;;
30533;SDS011;17318;52.390;9.754;2022-12-11T04:50:39;28.13;;;14.30;;
30533;SDS011;17318;52.390;9.754;2022-12-11T04:53:04;32.33;;;14.50;;
30533;SDS011;17318;52.390;9.754;2022-12-11T04:55:30;30.23;;;14.05;;
30533;SDS011;17318;52.390;9.754;2022-12-11T04:57:56;29.63;;;14.43;;
30533;SDS011;17318;52.390;9.754;2022-12-11T05:00:21;29.80;;;13.65;;
30533;SDS011;17318;52.390;9.754;2022-12-11T05:02:47;27.75;;;13.25;;
30533;SDS011;17318;52.390;9.754;2022-12-11T05:05:13;30.30;;;14.05;;
30533;SDS011;17318;52.390;9.754;2022-12-11T05:07:39;28.50;;;13.77;;
30533;SDS011;17318;52.390;9.754;2022-12-11T05:10:06;36.10;;;14.87;;
30533;SDS011;17318;52.390;9.754;2022-12-11T05:12:32;33.72;;;13.95;;
30533;SDS011;17318;52.390;9.754;2022-12-11T05:14:58;32.90;;;14.27;;
30533;SDS011;17318;52.390;9.754;2022-12-11T05:17:23;30.63;;;14.15;;
30533;SDS011;17318;52.390;9.754;2022-12-11T05:19:49;36.90;;;14.82;;
30533;SDS011;17318;52.390;9.754;2022-12-11T05:22:15;30.42;;;15.38;;
30533;SDS011;17318;52.390;9.754;2022-12-11T05:24:42;31.73;;;14.63;;
30533;SDS011;17318;52.390;9.754;2022-12-11T05:27:08;33.60;;;15.60;;
30533;SDS011;17318;52.390;9.754;2022-12-11T05:29:35;31.60;;;14.35;;
30533;SDS011;17318;52.390;9.754;2022-12-11T05:32:00;36.10;;;15.20;;
30533;SDS011;17318;52.390;9.754;2022-12-11T05:34:26;30.27;;;14.32;;
30533;SDS011;17318;52.390;9.754;2022-12-11T05:36:52;37.38;;;15.73;;
30533;SDS011;17318;52.390;9.754;2022-12-11T05:39:18;32.28;;;14.73;;
30533;SDS011;17318;52.390;9.754;2022-12-11T05:41:44;31.55;;;14.00;;
30533;SDS011;17318;52.390;9.754;2022-12-11T05:44:10;35.38;;;15.07;;
30533;SDS011;17318;52.390;9.754;2022-12-11T05:46:37;33.90;;;14.45;;
30533;SDS011;17318;52.390;9.754;2022-12-11T05:49:03;30.00;;;14.25;;
30533;SDS011;17318;52.390;9.754;2022-12-11T05:51:29;32.22;;;15.15;;
30533;SDS011;17318;52.390;9.754;2022-12-11T05:53:58;32.10;;;14.15;;
30533;SDS011;17318;52.390;9.754;2022-12-11T05:56:25;35.08;;;15.48;;
30533;SDS011;17318;52.390;9.754;2022-12-11T05:58:56;30.83;;;15.07;;
30533;SDS011;17318;52.390;9.754;2022-12-11T06:01:23;27.73;;;14.20;;
30533;SDS011;17318;52.390;9.754;2022-12-11T06:04:16;36.83;;;15.68;;
30533;SDS011;17318;52.390;9.754;2022-12-11T06:06:41;27.75;;;13.93;;
30533;SDS011;17318;52.390;9.754;2022-12-11T06:09:11;28.30;;;13.70;;
30533;SDS011;17318;52.390;9.754;2022-12-11T06:11:38;29.58;;;13.45;;
30533;SDS011;17318;52.390;9.754;2022-12-11T06:14:04;33.55;;;15.63;;
30533;SDS011;17318;52.390;9.754;2022-12-11T06:16:30;35.15;;;15.02;;
30533;SDS011;17318;52.390;9.754;2022-12-11T06:18:56;33.08;;;14.88;;
30533;SDS011;17318;52.390;9.754;2022-12-11T06:21:23;36.78;;;15.45;;
30533;SDS011;17318;52.390;9.754;2022-12-11T06:23:52;29.35;;;14.50;;
30533;SDS011;17318;52.390;9.754;2022-12-11T06:26:19;33.53;;;14.43;;
30533;SDS011;17318;52.390;9.754;2022-12-11T06:28:45;31.77;;;14.60;;
30533;SDS011;17318;52.390;9.754;2022-12-11T06:31:11;33.35;;;15.50;;
30533;SDS011;17318;52.390;9.754;2022-12-11T06:33:37;35.22;;;14.98;;
30533;SDS011;17318;52.390;9.754;2022-12-11T06:36:04;30.45;;;14.50;;
30533;SDS011;17318;52.390;9.754;2022-12-11T06:38:35;30.30;;;14.07;;
30533;SDS011;17318;52.390;9.754;2022-12-11T06:41:01;31.25;;;14.90;;
30533;SDS011;17318;52.390;9.754;2022-12-11T06:43:32;34.67;;;14.75;;
30533;SDS011;17318;52.390;9.754;2022-12-11T06:45:58;33.15;;;14.85;;
30533;SDS011;17318;52.390;9.754;2022-12-11T06:48:28;30.20;;;14.05;;
30533;SDS011;17318;52.390;9.754;2022-12-11T06:50:53;30.77;;;14.80;;
30533;SDS011;17318;52.390;9.754;2022-12-11T06:53:19;33.58;;;14.48;;
30533;SDS011;17318;52.390;9.754;2022-12-11T06:55:45;30.10;;;14.20;;
30533;SDS011;17318;52.390;9.754;2022-12-11T06:58:10;29.67;;;14.27;;
30533;SDS011;17318;52.390;9.754;2022-12-11T07:00:36;32.13;;;14.60;;
30533;SDS011;17318;52.390;9.754;2022-12-11T07:03:03;38.22;;;14.98;;
30533;SDS011;17318;52.390;9.754;2022-12-11T07:05:29;32.38;;;14.68;;
30533;SDS011;17318;52.390;9.754;2022-12-11T07:07:56;33.70;;;14.63;;
30533;SDS011;17318;52.390;9.754;2022-12-11T07:10:22;31.33;;;14.48;;
30533;SDS011;17318;52.390;9.754;2022-12-11T07:12:48;37.67;;;14.27;;
30533;SDS011;17318;52.390;9.754;2022-12-11T07:15:16;29.65;;;13.70;;
30533;SDS011;17318;52.390;9.754;2022-12-11T07:17:41;28.70;;;14.38;;
30533;SDS011;17318;52.390;9.754;2022-12-11T07:20:07;32.15;;;15.20;;
30533;SDS011;17318;52.390;9.754;2022-12-11T07:22:33;31.33;;;14.60;;
30533;SDS011;17318;52.390;9.754;2022-12-11T07:24:59;30.83;;;13.90;;
30533;SDS011;17318;52.390;9.754;2022-12-11T07:27:25;28.50;;;14.35;;
30533;SDS011;17318;52.390;9.754;2022-12-11T07:29:51;33.38;;;16.02;;
30533;SDS011;17318;52.390;9.754;2022-12-11T07:32:16;33.80;;;15.63;;
30533;SDS011;17318;52.390;9.754;2022-12-11T07:34:42;29.48;;;14.20;;
30533;SDS011;17318;52.390;9.754;2022-12-11T07:37:08;29.52;;;14.05;;
30533;SDS011;17318;52.390;9.754;2022-12-11T07:39:33;28.75;;;14.57;;
30533;SDS011;17318;52.390;9.754;2022-12-11T07:41:59;30.90;;;14.52;;
30533;SDS011;17318;52.390;9.754;2022-12-11T07:44:25;30.40;;;15.88;;
30533;SDS011;17318;52.390;9.754;2022-12-11T07:46:50;30.33;;;14.75;;
30533;SDS011;17318;52.390;9.754;2022-12-11T07:49:16;33.67;;;15.32;;
30533;SDS011;17318;52.390;9.754;2022-12-11T07:51:42;38.28;;;16.83;;
30533;SDS011;17318;52.390;9.754;2022-12-11T07:54:10;33.53;;;16.08;;
30533;SDS011;17318;52.390;9.754;2022-12-11T07:56:40;46.22;;;16.52;;
30533;SDS011;17318;52.390;9.754;2022-12-11T07:59:07;33.17;;;15.88;;
30533;SDS011;17318;52.390;9.754;2022-12-11T08:01:33;35.42;;;16.33;;
30533;SDS011;17318;52.390;9.754;2022-12-11T08:04:00;34.42;;;15.48;;
30533;SDS011;17318;52.390;9.754;2022-12-11T08:06:31;36.27;;;16.13;;
30533;SDS011;17318;52.390;9.754;2022-12-11T08:08:58;36.47;;;15.65;;
30533;SDS011;17318;52.390;9.754;2022-12-11T08:11:25;34.20;;;16.60;;
30533;SDS011;17318;52.390;9.754;2022-12-11T08:13:51;40.88;;;18.00;;
30533;SDS011;17318;52.390;9.754;2022-12-11T08:16:17;40.40;;;16.90;;
30533;SDS011;17318;52.390;9.754;2022-12-11T08:18:44;33.58;;;15.43;;
30533;SDS011;17318;52.390;9.754;2022-12-11T08:21:15;35.97;;;16.13;;
30533;SDS011;17318;52.390;9.754;2022-12-11T08:23:43;34.55;;;15.73;;
30533;SDS011;17318;52.390;9.754;2022-12-11T08:26:10;33.97;;;15.77;;
30533;SDS011;17318;52.390;9.754;2022-12-11T08:28:42;37.00;;;15.88;;
30533;SDS011;17318;52.390;9.754;2022-12-11T08:31:08;33.40;;;15.07;;
30533;SDS011;17318;52.390;9.754;2022-12-11T08:33:36;38.72;;;16.27;;
30533;SDS011;17318;52.390;9.754;2022-12-11T08:36:03;37.50;;;16.17;;
30533;SDS011;17318;52.390;9.754;2022-12-11T08:38:31;36.55;;;15.70;;
30533;SDS011;17318;52.390;9.754;2022-12-11T08:40:56;37.58;;;15.90;;
30533;SDS011;17318;52.390;9.754;2022-12-11T08:43:22;35.67;;;16.20;;
30533;SDS011;17318;52.390;9.754;2022-12-11T08:45:48;41.38;;;18.50;;
30533;SDS011;17318;52.390;9.754;2022-12-11T08:48:14;38.75;;;17.50;;
30533;SDS011;17318;52.390;9.754;2022-12-11T08:50:40;43.80;;;17.98;;
30533;SDS011;17318;52.390;9.754;2022-12-11T08:53:06;50.10;;;20.42;;
30533;SDS011;17318;52.390;9.754;2022-12-11T08:55:32;55.65;;;18.98;;
30533;SDS011;17318;52.390;9.754;2022-12-11T08:57:58;32.33;;;14.65;;
30533;SDS011;17318;52.390;9.754;2022-12-11T09:00:24;38.63;;;15.68;;
30533;SDS011;17318;52.390;9.754;2022-12-11T09:02:49;38.15;;;14.57;;
30533;SDS011;17318;52.390;9.754;2022-12-11T09:05:15;29.55;;;14.63;;
30533;SDS011;17318;52.390;9.754;2022-12-11T09:07:41;36.20;;;15.73;;
30533;SDS011;17318;52.390;9.754;2022-12-11T09:10:07;38.40;;;15.52;;
30533;SDS011;17318;52.390;9.754;2022-12-11T09:12:34;37.05;;;16.08;;
30533;SDS011;17318;52.390;9.754;2022-12-11T09:15:00;37.50;;;15.55;;
30533;SDS011;17318;52.390;9.754;2022-12-11T09:17:25;36.92;;;14.98;;
30533;SDS011;17318;52.390;9.754;2022-12-11T09:19:51;39.00;;;16.02;;
30533;SDS011;17318;52.390;9.754;2022-12-11T09:22:17;43.65;;;18.20;;
30533;SDS011;17318;52.390;9.754;2022-12-11T09:24:42;46.42;;;20.85;;
30533;SDS011;17318;52.390;9.754;2022-12-11T09:27:08;44.28;;;16.00;;
30533;SDS011;17318;52.390;9.754;2022-12-11T09:29:34;29.05;;;14.25;;
30533;SDS011;17318;52.390;9.754;2022-12-11T09:31:59;35.90;;;14.60;;
30533;SDS011;17318;52.390;9.754;2022-12-11T09:34:25;41.90;;;15.75;;
30533;SDS011;17318;52.390;9.754;2022-12-11T09:36:51;34.55;;;14.13;;
30533;SDS011;17318;52.390;9.754;2022-12-11T09:39:17;35.20;;;14.68;;
30533;SDS011;17318;52.390;9.754;2022-12-11T09:45:20;36.28;;;14.07;;
30533;SDS011;17318;52.390;9.754;2022-12-11T09:47:22;33.17;;;14.68;;
30533;SDS011;17318;52.390;9.754;2022-12-11T09:50:03;27.55;;;12.52;;
30533;SDS011;17318;52.390;9.754;2022-12-11T09:52:33;28.45;;;12.07;;
30533;SDS011;17318;52.390;9.754;2022-12-11T09:55:03;32.47;;;13.15;;
30533;SDS011;17318;52.390;9.754;2022-12-11T09:57:59;37.58;;;13.35;;
30533;SDS011;17318;52.390;9.754;2022-12-11T10:00:39;34.55;;;13.20;;
30533;SDS011;17318;52.390;9.754;2022-12-11T10:14:42;28.20;;;11.65;;
30533;SDS011;17318;52.390;9.754;2022-12-11T10:17:31;27.30;;;12.70;;
30533;SDS011;17318;52.390;9.754;2022-12-11T10:20:02;34.03;;;13.95;;
30533;SDS011;17318;52.390;9.754;2022-12-11T10:22:51;31.23;;;13.60;;
30533;SDS011;17318;52.390;9.754;2022-12-11T10:25:21;32.13;;;13.10;;
30533;SDS011;17318;52.390;9.754;2022-12-11T10:27:49;31.10;;;13.05;;
30533;SDS011;17318;52.390;9.754;2022-12-11T10:30:16;27.88;;;11.75;;
30533;SDS011;17318;52.390;9.754;2022-12-11T10:35:34;32.00;;;13.05;;
30533;SDS011;17318;52.390;9.754;2022-12-11T10:38:14;30.77;;;12.70;;
30533;SDS011;17318;52.390;9.754;2022-12-11T10:40:45;35.08;;;13.05;;
30533;SDS011;17318;52.390;9.754;2022-12-11T10:43:16;34.13;;;13.18;;
30533;SDS011;17318;52.390;9.754;2022-12-11T10:45:52;38.67;;;13.95;;
30533;SDS011;17318;52.390;9.754;2022-12-11T10:48:18;35.97;;;14.52;;
30533;SDS011;17318;52.390;9.754;2022-12-11T10:50:53;35.28;;;15.00;;
30533;SDS011;17318;52.390;9.754;2022-12-11T10:53:24;42.15;;;13.90;;
30533;SDS011;17318;52.390;9.754;2022-12-11T10:55:51;40.33;;;13.23;;
30533;SDS011;17318;52.390;9.754;2022-12-11T10:58:21;38.28;;;14.18;;
30533;SDS011;17318;52.390;9.754;2022-12-11T11:01:05;29.52;;;13.20;;
30533;SDS011;17318;52.390;9.754;2022-12-11T11:03:34;32.10;;;13.50;;
30533;SDS011;17318;52.390;9.754;2022-12-11T11:06:11;32.63;;;13.55;;
30533;SDS011;17318;52.390;9.754;2022-12-11T11:08:44;32.70;;;13.95;;
30533;SDS011;17318;52.390;9.754;2022-12-11T11:11:21;35.00;;;14.57;;
30533;SDS011;17318;52.390;9.754;2022-12-11T11:13:51;32.00;;;14.05;;
30533;SDS011;17318;52.390;9.754;2022-12-11T11:16:28;29.60;;;12.93;;
30533;SDS011;17318;52.390;9.754;2022-12-11T11:18:54;27.00;;;11.93;;
30533;SDS011;17318;52.390;9.754;2022-12-11T11:21:22;31.05;;;12.52;;
30533;SDS011;17318;52.390;9.754;2022-12-11T11:23:50;30.33;;;12.02;;
30533;SDS011;17318;52.390;9.754;2022-12-11T11:26:18;27.10;;;11.60;;
30533;SDS011;17318;52.390;9.754;2022-12-11T11:28:48;26.77;;;11.45;;
30533;SDS011;17318;52.390;9.754;2022-12-11T11:31:14;25.00;;;12.18;;
30533;SDS011;17318;52.390;9.754;2022-12-11T11:34:01;26.98;;;11.10;;
30533;SDS011;17318;52.390;9.754;2022-12-11T11:36:31;23.55;;;10.85;;
30533;SDS011;17318;52.390;9.754;2022-12-11T11:42:20;24.00;;;11.23;;
30533;SDS011;17318;52.390;9.754;2022-12-11T11:45:02;24.40;;;10.90;;
30533;SDS011;17318;52.390;9.754;2022-12-11T11:47:35;23.23;;;10.90;;
30533;SDS011;17318;52.390;9.754;2022-12-11T11:58:14;24.52;;;10.93;;
30533;SDS011;17318;52.390;9.754;2022-12-11T12:00:40;23.33;;;9.90;;
30533;SDS011;17318;52.390;9.754;2022-12-11T12:03:14;28.27;;;12.23;;
30533;SDS011;17318;52.390;9.754;2022-12-11T12:06:19;27.35;;;12.70;;
30533;SDS011;17318;52.390;9.754;2022-12-11T12:11:39;27.83;;;12.57;;
30533;SDS011;17318;52.390;9.754;2022-12-11T12:19:19;26.85;;;12.38;;
30533;SDS011;17318;52.390;9.754;2022-12-11T12:28:02;24.33;;;11.18;;
30533;SDS011;17318;52.390;9.754;2022-12-11T12:47:36;25.90;;;11.85;;
30533;SDS011;17318;52.390;9.754;2022-12-11T12:50:09;28.27;;;11.10;;
30533;SDS011;17318;52.390;9.754;2022-12-11T12:52:40;28.95;;;11.32;;
30533;SDS011;17318;52.390;9.754;2022-12-11T12:55:26;25.13;;;11.52;;
30533;SDS011;17318;52.390;9.754;2022-12-11T12:58:05;28.00;;;10.45;;
30533;SDS011;17318;52.390;9.754;2022-12-11T13:00:33;28.77;;;11.07;;
30533;SDS011;17318;52.390;9.754;2022-12-11T13:05:44;28.13;;;11.90;;
30533;SDS011;17318;52.390;9.754;2022-12-11T13:08:27;26.77;;;12.02;;
30533;SDS011;17318;52.390;9.754;2022-12-11T13:11:01;38.40;;;12.15;;
30533;SDS011;17318;52.390;9.754;2022-12-11T13:13:32;32.53;;;12.98;;
30533;SDS011;17318;52.390;9.754;2022-12-11T13:18:42;32.13;;;11.73;;
30533;SDS011;17318;52.390;9.754;2022-12-11T13:24:13;25.92;;;11.40;;
30533;SDS011;17318;52.390;9.754;2022-12-11T13:26:39;27.80;;;11.75;;
30533;SDS011;17318;52.390;9.754;2022-12-11T13:29:26;27.50;;;11.88;;
30533;SDS011;17318;52.390;9.754;2022-12-11T13:32:01;38.22;;;13.80;;
30533;SDS011;17318;52.390;9.754;2022-12-11T13:34:33;30.40;;;12.85;;
30533;SDS011;17318;52.390;9.754;2022-12-11T13:37:01;33.13;;;13.18;;
30533;SDS011;17318;52.390;9.754;2022-12-11T13:39:36;35.50;;;13.38;;
30533;SDS011;17318;52.390;9.754;2022-12-11T13:42:04;36.13;;;13.60;;
30533;SDS011;17318;52.390;9.754;2022-12-11T13:44:34;31.23;;;14.05;;
30533;SDS011;17318;52.390;9.754;2022-12-11T13:47:03;29.17;;;12.63;;
30533;SDS011;17318;52.390;9.754;2022-12-11T13:49:35;24.98;;;12.63;;
30533;SDS011;17318;52.390;9.754;2022-12-11T13:52:04;28.23;;;12.52;;
30533;SDS011;17318;52.390;9.754;2022-12-11T13:54:32;35.00;;;13.82;;
30533;SDS011;17318;52.390;9.754;2022-12-11T13:59:33;31.92;;;13.65;;
30533;SDS011;17318;52.390;9.754;2022-12-11T14:02:08;33.28;;;14.05;;
30533;SDS011;17318;52.390;9.754;2022-12-11T14:04:46;34.38;;;14.10;;
30533;SDS011;17318;52.390;9.754;2022-12-11T14:07:16;27.92;;;13.18;;
30533;SDS011;17318;52.390;9.754;2022-12-11T14:09:48;38.20;;;15.45;;
30533;SDS011;17318;52.390;9.754;2022-12-11T14:12:16;38.55;;;16.42;;
30533;SDS011;17318;52.390;9.754;2022-12-11T14:14:50;33.67;;;14.23;;
30533;SDS011;17318;52.390;9.754;2022-12-11T14:17:24;30.05;;;13.20;;
30533;SDS011;17318;52.390;9.754;2022-12-11T14:19:52;28.92;;;13.43;;
30533;SDS011;17318;52.390;9.754;2022-12-11T14:22:24;32.90;;;15.57;;
30533;SDS011;17318;52.390;9.754;2022-12-11T14:24:52;32.95;;;15.30;;
30533;SDS011;17318;52.390;9.754;2022-12-11T14:27:28;40.45;;;14.88;;
30533;SDS011;17318;52.390;9.754;2022-12-11T14:29:54;34.37;;;15.23;;
30533;SDS011;17318;52.390;9.754;2022-12-11T14:32:53;36.78;;;13.48;;
30533;SDS011;17318;52.390;9.754;2022-12-11T14:35:54;32.97;;;14.57;;
30533;SDS011;17318;52.390;9.754;2022-12-11T14:38:06;31.88;;;13.52;;
30533;SDS011;17318;52.390;9.754;2022-12-11T14:40:37;39.35;;;14.75;;
30533;SDS011;17318;52.390;9.754;2022-12-11T14:43:10;33.33;;;13.63;;
30533;SDS011;17318;52.390;9.754;2022-12-11T14:45:44;35.47;;;13.30;;
30533;SDS011;17318;52.390;9.754;2022-12-11T14:48:15;35.75;;;14.23;;
30533;SDS011;17318;52.390;9.754;2022-12-11T14:50:53;35.88;;;13.45;;
30533;SDS011;17318;52.390;9.754;2022-12-11T14:53:27;29.58;;;11.75;;
30533;SDS011;17318;52.390;9.754;2022-12-11T14:56:00;29.08;;;13.02;;
30533;SDS011;17318;52.390;9.754;2022-12-11T14:58:29;38.17;;;14.20;;
30533;SDS011;17318;52.390;9.754;2022-12-11T15:01:01;32.22;;;13.40;;
30533;SDS011;17318;52.390;9.754;2022-12-11T15:03:33;29.48;;;13.07;;
30533;SDS011;17318;52.390;9.754;2022-12-11T15:06:01;27.25;;;11.82;;
30533;SDS011;17318;52.390;9.754;2022-12-11T15:08:44;37.50;;;13.63;;
30533;SDS011;17318;52.390;9.754;2022-12-11T15:11:11;28.30;;;12.93;;
30533;SDS011;17318;52.390;9.754;2022-12-11T15:16:17;28.90;;;13.07;;
30533;SDS011;17318;52.390;9.754;2022-12-11T15:18:46;31.47;;;13.13;;
30533;SDS011;17318;52.390;9.754;2022-12-11T15:21:13;33.85;;;13.13;;
30533;SDS011;17318;52.390;9.754;2022-12-11T15:26:16;33.40;;;14.05;;
30533;SDS011;17318;52.390;9.754;2022-12-11T15:28:43;32.85;;;13.73;;
30533;SDS011;17318;52.390;9.754;2022-12-11T15:31:25;31.08;;;12.98;;
30533;SDS011;17318;52.390;9.754;2022-12-11T15:33:57;33.03;;;14.63;;
30533;SDS011;17318;52.390;9.754;2022-12-11T15:36:33;37.55;;;14.05;;
30533;SDS011;17318;52.390;9.754;2022-12-11T15:39:00;37.47;;;14.60;;
30533;SDS011;17318;52.390;9.754;2022-12-11T15:41:26;36.25;;;13.95;;
30533;SDS011;17318;52.390;9.754;2022-12-11T15:43:58;42.58;;;15.50;;
30533;SDS011;17318;52.390;9.754;2022-12-11T15:46:26;32.40;;;14.25;;
30533;SDS011;17318;52.390;9.754;2022-12-11T15:48:52;33.47;;;13.27;;
30533;SDS011;17318;52.390;9.754;2022-12-11T15:51:20;35.10;;;14.15;;
30533;SDS011;17318;52.390;9.754;2022-12-11T15:53:46;39.47;;;14.68;;
30533;SDS011;17318;52.390;9.754;2022-12-11T15:56:13;33.53;;;13.95;;
30533;SDS011;17318;52.390;9.754;2022-12-11T15:58:40;32.78;;;13.98;;
30533;SDS011;17318;52.390;9.754;2022-12-11T16:01:06;34.17;;;13.13;;
30533;SDS011;17318;52.390;9.754;2022-12-11T16:03:32;34.30;;;15.23;;
30533;SDS011;17318;52.390;9.754;2022-12-11T16:05:58;37.53;;;14.07;;
30533;SDS011;17318;52.390;9.754;2022-12-11T16:08:24;35.60;;;15.70;;
30533;SDS011;17318;52.390;9.754;2022-12-11T16:10:50;40.90;;;14.32;;
30533;SDS011;17318;52.390;9.754;2022-12-11T16:13:18;37.53;;;16.05;;
30533;SDS011;17318;52.390;9.754;2022-12-11T16:15:45;39.78;;;15.57;;